createdAt,value
2019-04-11T00:09:16.712Z,99.90
2019-04-11T00:11:48.798Z,99.90
2019-04-11T00:34:20.597Z,99.90
2019-04-11T00:36:50.828Z,99.90
2019-04-11T00:39:21.548Z,99.90
2019-04-11T00:56:52.940Z,99.90
2019-04-11T00:59:24.593Z,99.90
2019-04-11T01:04:25.549Z,99.90
2019-04-11T01:09:26.403Z,99.90
2019-04-11T01:17:01.153Z,99.90
2019-04-11T01:19:31.232Z,99.90
2019-04-11T01:27:01.639Z,99.90
2019-04-11T01:32:09.132Z,99.90
2019-04-11T01:34:40.566Z,99.90
2019-04-11T01:37:11.423Z,99.90
2019-04-11T01:39:53.620Z,99.90
2019-04-11T01:44:56.932Z,99.90
2019-04-11T01:52:44.710Z,99.90
2019-04-11T01:55:14.972Z,99.90
2019-04-11T01:57:46.407Z,99.90
2019-04-11T02:00:24.334Z,99.90
2019-04-11T02:02:57.083Z,99.90
2019-04-11T02:05:34.911Z,99.90
2019-04-11T02:08:05.206Z,99.90
2019-04-11T02:10:35.486Z,99.90
2019-04-11T02:13:05.900Z,99.90
2019-04-11T02:15:56.831Z,99.90
2019-04-11T02:21:03.213Z,99.90
2019-04-11T02:23:47.634Z,99.90
2019-04-11T02:26:22.063Z,99.90
2019-04-11T02:28:53.038Z,99.90
2019-04-11T02:31:23.370Z,99.90
2019-04-11T02:33:57.312Z,99.90
2019-04-11T02:39:16.142Z,99.90
2019-04-11T02:41:54.972Z,99.90
2019-04-11T02:47:07.902Z,99.90
2019-04-11T02:49:35.661Z,99.90
2019-04-11T02:52:09.456Z,99.90
2019-04-11T02:54:40.979Z,99.90
2019-04-11T02:59:46.285Z,99.90
2019-04-11T03:02:23.812Z,99.90
2019-04-11T03:04:56.167Z,99.90
2019-04-11T03:07:35.993Z,99.90
2019-04-11T03:10:09.345Z,99.90
2019-04-11T03:12:40.531Z,99.90
2019-04-11T03:15:28.826Z,99.90
2019-04-11T03:17:46.157Z,99.90
2019-04-11T03:20:26.627Z,99.90
2019-04-11T03:22:57.100Z,99.90
2019-04-11T03:25:22.627Z,99.90
2019-04-11T03:36:27.600Z,99.90
2019-04-11T03:38:23.099Z,99.90
2019-04-11T03:40:52.081Z,99.90
2019-04-11T03:43:23.140Z,99.90
2019-04-11T03:48:29.216Z,99.90
2019-04-11T03:50:54.587Z,99.90
2019-04-11T03:53:30.091Z,99.90
2019-04-11T03:56:07.735Z,99.90
2019-04-11T03:58:41.729Z,99.90
2019-04-11T04:01:13.821Z,99.90
2019-04-11T04:03:53.942Z,99.90
2019-04-11T04:06:25.560Z,99.90
2019-04-11T04:08:56.376Z,99.90
2019-04-11T04:17:01.148Z,99.90
2019-04-11T04:19:41.145Z,99.90
2019-04-11T04:22:15.976Z,99.90
2019-04-11T04:24:49.153Z,99.90
2019-04-11T04:27:23.278Z,99.90
2019-04-11T04:29:57.260Z,99.90
2019-04-11T04:32:25.145Z,99.90
2019-04-11T04:34:58.413Z,99.90
2019-04-11T04:37:31.924Z,99.90
2019-04-11T04:40:24.212Z,99.90
2019-04-11T04:42:43.637Z,99.90
2019-04-11T04:45:11.777Z,99.90
2019-04-11T04:50:28.686Z,99.90
2019-04-11T04:53:00.951Z,99.90
2019-04-11T04:55:32.443Z,99.90
2019-04-11T04:58:04.927Z,99.90
2019-04-11T05:03:05.580Z,99.90
2019-04-11T05:05:38.968Z,99.90
2019-04-11T05:08:20.727Z,99.90
2019-04-11T05:10:57.882Z,99.90
2019-04-11T05:13:28.193Z,99.90
2019-04-11T05:16:08.535Z,99.90
2019-04-11T05:18:30.412Z,99.90
2019-04-11T05:21:01.167Z,99.90
2019-04-11T05:23:37.345Z,99.90
2019-04-11T05:33:39.084Z,99.90
2019-04-11T05:36:12.306Z,99.90
2019-04-11T05:38:44.282Z,99.90
2019-04-11T05:41:15.349Z,99.90
2019-04-11T05:43:49.385Z,99.90
2019-04-11T05:46:33.443Z,99.90
2019-04-11T05:49:02.652Z,99.90
2019-04-11T05:51:40.874Z,99.90
2019-04-11T05:54:10.746Z,99.90
2019-04-11T05:56:41.916Z,99.90
2019-04-11T05:59:15.138Z,99.90
2019-04-11T06:04:22.401Z,99.90
2019-04-11T06:07:00.058Z,99.90
2019-04-11T06:09:35.954Z,99.90
2019-04-11T06:12:17.159Z,99.90
2019-04-11T06:14:57.894Z,99.90
2019-04-11T06:17:38.491Z,99.90
2019-04-11T06:20:19.918Z,99.90
2019-04-11T06:23:00.579Z,99.90
2019-04-11T06:25:38.063Z,99.90
2019-04-11T06:31:26.318Z,99.90
2019-04-11T06:34:00.814Z,99.90
2019-04-11T06:36:41.329Z,99.90
2019-04-11T06:39:15.790Z,99.90
2019-04-11T06:41:59.053Z,99.90
2019-04-11T06:44:40.063Z,99.90
2019-04-11T06:47:12.465Z,99.90
2019-04-11T06:50:04.063Z,99.90
2019-04-11T06:52:36.916Z,99.90
2019-04-11T06:55:10.876Z,99.90
2019-04-11T06:57:49.991Z,99.90
2019-04-11T07:00:21.025Z,99.90
2019-04-11T07:02:57.162Z,99.90
2019-04-11T07:05:29.058Z,99.90
2019-04-11T07:08:02.052Z,99.90
2019-04-11T07:10:34.204Z,99.90
2019-04-11T07:13:07.748Z,99.90
2019-04-11T07:15:39.760Z,99.90
2019-04-11T07:18:24.819Z,99.90
2019-04-11T07:21:03.049Z,99.90
2019-04-11T07:26:42.096Z,99.90
2019-04-11T07:29:15.182Z,99.90
2019-04-11T07:31:48.305Z,99.90
2019-04-11T07:34:36.163Z,99.90
2019-04-11T07:37:28.236Z,99.90
2019-04-11T07:40:09.457Z,99.90
2019-04-11T07:42:52.230Z,99.90
2019-04-11T07:45:25.328Z,99.90
2019-04-11T07:50:31.193Z,99.90
2019-04-11T07:53:04.924Z,99.90
2019-04-11T07:58:13.061Z,99.90
2019-04-11T08:01:01.518Z,99.90
2019-04-11T08:03:45.080Z,99.90
2019-04-11T08:06:22.342Z,99.90
2019-04-11T08:09:13.249Z,99.90
2019-04-11T08:11:44.925Z,99.90
2019-04-11T08:14:18.330Z,99.90
2019-04-11T08:16:53.296Z,99.90
2019-04-11T08:25:03.645Z,99.90
2019-04-11T08:28:04.305Z,99.90
2019-04-11T08:30:41.556Z,99.90
2019-04-11T08:33:11.835Z,99.90
2019-04-11T08:36:03.829Z,99.90
2019-04-11T08:38:36.262Z,99.90
2019-04-11T08:41:15.488Z,99.90
2019-04-11T08:43:47.667Z,99.90
2019-04-11T08:46:20.682Z,99.90
2019-04-11T08:49:03.672Z,99.90
2019-04-11T08:51:35.722Z,99.50
2019-04-11T08:54:33.289Z,99.20
2019-04-11T08:57:13.755Z,97.60
2019-04-11T09:00:02.171Z,96.20
2019-04-11T09:02:49.313Z,93.80
2019-04-11T09:05:26.948Z,90.20
2019-04-11T09:08:05.820Z,90.50
2019-04-11T09:10:53.538Z,90.30
2019-04-11T09:13:29.075Z,91.20
2019-04-11T09:16:17.540Z,88.60
2019-04-11T09:18:50.956Z,87.90
2019-04-11T09:21:41.147Z,85.10
2019-04-11T09:24:15.275Z,86.00
2019-04-11T09:27:02.877Z,87.10
2019-04-11T09:29:56.903Z,84.70
2019-04-11T09:32:52.847Z,75.00
2019-04-11T09:35:31.191Z,71.80
2019-04-11T09:38:04.248Z,71.80
2019-04-11T09:40:41.969Z,72.50
2019-04-11T09:43:15.944Z,67.90
2019-04-11T09:46:03.844Z,61.40
2019-04-11T09:48:46.329Z,60.40
2019-04-11T09:51:21.258Z,62.30
2019-04-11T09:53:59.221Z,62.80
2019-04-11T09:56:33.490Z,61.00
2019-04-11T09:59:05.806Z,61.50
2019-04-11T10:01:56.062Z,60.10
2019-04-11T10:04:33.994Z,58.40
2019-04-11T10:10:02.767Z,60.70
2019-04-11T10:12:40.574Z,60.60
2019-04-11T10:17:54.796Z,60.50
2019-04-11T10:20:28.824Z,59.90
2019-04-11T10:23:13.367Z,59.60
2019-04-11T10:25:43.661Z,62.00
2019-04-11T10:28:37.584Z,57.30
2019-04-11T10:31:23.231Z,55.00
2019-04-11T10:34:04.630Z,55.80
2019-04-11T10:36:37.242Z,54.50
2019-04-11T10:39:27.118Z,57.40
2019-04-11T10:41:59.030Z,55.20
2019-04-11T10:44:54.120Z,55.00
2019-04-11T10:50:11.516Z,55.10
2019-04-11T10:52:46.759Z,55.20
2019-04-11T10:55:27.383Z,57.10
2019-04-11T10:58:06.763Z,55.80
2019-04-11T11:00:41.365Z,55.30
2019-04-11T11:03:20.291Z,52.80
2019-04-11T11:06:03.168Z,51.90
2019-04-11T11:11:06.290Z,49.00
2019-04-11T11:13:56.350Z,50.20
2019-04-11T11:16:40.347Z,50.00
2019-04-11T11:19:33.760Z,51.00
2019-04-11T11:21:49.219Z,51.20
2019-04-11T11:24:23.936Z,52.10
2019-04-11T11:27:03.993Z,53.60
2019-04-11T11:29:40.331Z,53.80
2019-04-11T11:32:13.324Z,55.10
2019-04-11T11:34:53.279Z,53.30
2019-04-11T11:37:31.296Z,54.40
2019-04-11T11:43:10.717Z,56.90
2019-04-11T11:48:41.758Z,53.30
2019-04-11T11:51:13.641Z,54.80
2019-04-11T11:54:13.618Z,56.90
2019-04-11T11:56:50.633Z,52.00
2019-04-11T11:59:40.759Z,50.90
2019-04-11T12:02:24.284Z,50.50
2019-04-11T12:04:58.791Z,51.40
2019-04-11T12:07:37.056Z,51.00
2019-04-11T12:10:26.116Z,52.50
2019-04-11T12:16:19.087Z,54.20
2019-04-11T12:21:33.261Z,55.90
2019-04-11T12:24:36.487Z,56.10
2019-04-11T12:27:08.679Z,57.10
2019-04-11T12:29:46.814Z,56.50
2019-04-11T12:32:16.600Z,57.10
2019-04-11T12:34:57.732Z,57.70
2019-04-11T12:37:43.390Z,56.60
2019-04-11T12:40:31.653Z,56.90
2019-04-11T12:43:03.426Z,56.30
2019-04-11T12:45:52.132Z,58.30
2019-04-11T12:48:24.953Z,58.90
2019-04-11T12:50:56.761Z,55.90
2019-04-11T12:53:31.105Z,55.60
2019-04-11T12:56:08.870Z,55.90
2019-04-11T12:58:41.594Z,57.30
2019-04-11T13:01:26.517Z,57.60
2019-04-11T13:04:07.949Z,57.10
2019-04-11T13:06:53.801Z,56.20
2019-04-11T13:09:46.641Z,55.60
2019-04-11T13:12:27.366Z,56.10
2019-04-11T13:15:14.921Z,55.90
2019-04-11T13:18:02.531Z,55.30
2019-04-11T13:23:25.615Z,55.60
2019-04-11T13:26:22.565Z,55.70
2019-04-11T13:29:10.485Z,53.90
2019-04-11T13:31:54.184Z,54.20
2019-04-11T13:34:30.590Z,52.40
2019-04-11T13:37:14.318Z,51.80
2019-04-11T13:39:46.737Z,55.60
2019-04-11T13:42:43.701Z,52.50
2019-04-11T13:45:14.669Z,52.80
2019-04-11T13:47:52.281Z,52.10
2019-04-11T13:50:22.371Z,54.00
2019-04-11T13:53:21.705Z,52.30
2019-04-11T13:55:51.801Z,50.50
2019-04-11T13:58:29.289Z,50.90
2019-04-11T14:00:59.464Z,50.10
2019-04-11T14:03:47.462Z,50.40
2019-04-11T14:06:20.061Z,48.30
2019-04-11T14:09:13.141Z,46.90
2019-04-11T14:11:46.784Z,45.80
2019-04-11T14:16:49.875Z,46.40
2019-04-11T14:19:33.563Z,48.60
2019-04-11T14:22:08.326Z,50.50
2019-04-11T14:24:56.364Z,50.90
2019-04-11T14:27:38.659Z,51.30
2019-04-11T14:30:21.201Z,51.40
2019-04-11T14:32:53.951Z,52.90
2019-04-11T14:35:28.467Z,48.80
2019-04-11T14:38:12.192Z,47.00
2019-04-11T14:41:01.661Z,42.70
2019-04-11T14:43:45.896Z,41.10
2019-04-11T14:49:13.121Z,39.50
2019-04-11T14:52:10.233Z,41.80
2019-04-11T14:54:48.873Z,43.80
2019-04-11T14:57:23.395Z,45.00
2019-04-11T15:00:00.186Z,47.60
2019-04-11T15:02:39.801Z,49.70
2019-04-11T15:13:12.897Z,47.00
2019-04-11T15:15:44.637Z,48.00
2019-04-11T15:18:16.017Z,47.50
2019-04-11T15:21:06.596Z,45.60
2019-04-11T15:23:39.487Z,44.40
2019-04-11T15:26:27.081Z,45.00
2019-04-11T15:28:58.816Z,44.60
2019-04-11T15:31:43.269Z,42.80
2019-04-11T15:34:27.390Z,42.40
2019-04-11T15:37:17.045Z,39.60
2019-04-11T15:39:51.586Z,36.90
2019-04-11T15:42:40.572Z,36.70
2019-04-11T15:55:43.347Z,43.00
2019-04-11T16:00:44.854Z,46.60
2019-04-11T16:03:24.529Z,47.60
2019-04-11T16:08:31.815Z,49.80
2019-04-11T16:11:12.216Z,49.90
2019-04-11T16:13:41.907Z,52.10
2019-04-11T16:16:12.980Z,52.50
2019-04-11T16:19:00.821Z,51.40
2019-04-11T16:21:35.045Z,51.40
2019-04-11T16:24:27.318Z,51.80
2019-04-11T16:27:06.925Z,50.60
2019-04-11T16:29:47.325Z,52.60
2019-04-11T16:32:19.002Z,51.80
2019-04-11T16:35:02.433Z,52.20
2019-04-11T16:37:32.641Z,53.70
2019-04-11T16:40:27.673Z,53.80
2019-04-11T16:42:59.425Z,53.70
2019-04-11T16:45:42.597Z,55.10
2019-04-11T16:48:13.691Z,55.70
2019-04-11T16:50:46.099Z,55.10
2019-04-11T16:53:21.409Z,55.10
2019-04-11T16:56:00.531Z,56.50
2019-04-11T17:01:08.473Z,56.70
2019-04-11T17:03:38.847Z,57.70
2019-04-11T17:06:30.205Z,58.10
2019-04-11T17:09:01.989Z,59.10
2019-04-11T17:11:47.417Z,59.50
2019-04-11T17:14:27.699Z,63.00
2019-04-11T17:16:51.245Z,62.30
2019-04-11T17:22:00.201Z,64.60
2019-04-11T17:24:30.314Z,66.50
2019-04-11T17:27:12.761Z,67.50
2019-04-11T17:29:48.867Z,67.30
2019-04-11T17:37:18.365Z,70.10
2019-04-11T17:39:48.538Z,72.70
2019-04-11T17:44:48.377Z,73.10
2019-04-11T17:47:19.458Z,73.50
2019-04-11T17:50:04.226Z,73.70
2019-04-11T17:52:34.507Z,74.70
2019-04-11T17:55:07.484Z,75.70
2019-04-11T17:57:37.553Z,78.30
2019-04-11T18:02:42.049Z,82.80
2019-04-11T18:07:42.299Z,85.40
2019-04-11T18:10:12.594Z,85.50
2019-04-11T18:12:42.720Z,86.50
2019-04-11T18:17:52.901Z,90.10
2019-04-11T18:22:54.348Z,91.40
2019-04-11T18:25:25.531Z,92.40
2019-04-11T18:28:01.755Z,93.50
2019-04-11T18:30:31.937Z,94.50
2019-04-11T18:35:37.635Z,96.70
2019-04-11T18:38:13.869Z,96.80
2019-04-11T18:40:47.005Z,97.20
2019-04-11T18:45:49.001Z,98.70
2019-04-11T18:48:19.110Z,99.20
2019-04-11T18:50:50.868Z,99.90
2019-04-11T18:53:22.091Z,99.90
2019-04-11T19:00:52.677Z,99.90
2019-04-11T19:03:22.803Z,99.90
2019-04-11T19:05:53.033Z,99.90
2019-04-11T19:08:23.288Z,99.90
2019-04-11T19:15:56.995Z,99.90
2019-04-11T19:18:30.849Z,99.90
2019-04-11T19:21:01.278Z,99.90
2019-04-11T19:23:31.647Z,99.90
2019-04-11T19:26:02.076Z,99.90
2019-04-11T19:33:34.875Z,99.90
2019-04-11T19:38:42.997Z,99.90
2019-04-11T19:41:11.679Z,99.90
2019-04-11T19:43:42.715Z,99.90
2019-04-11T19:46:13.794Z,99.90
2019-04-11T19:53:46.227Z,99.90
2019-04-11T19:56:21.715Z,99.90
2019-04-11T20:03:54.002Z,99.90
2019-04-11T20:09:01.627Z,99.90
2019-04-11T20:11:31.738Z,99.90
2019-04-11T20:14:02.863Z,99.90
2019-04-11T20:16:41.422Z,99.90
2019-04-11T20:19:05.959Z,99.90
2019-04-11T20:21:42.136Z,99.90
2019-04-11T20:24:14.553Z,99.90
2019-04-11T20:26:44.053Z,99.90
2019-04-11T20:34:13.875Z,99.90
2019-04-11T20:36:44.301Z,99.90
2019-04-11T20:44:21.065Z,99.90
2019-04-11T20:49:21.826Z,99.90
2019-04-11T20:51:51.922Z,99.90
2019-04-11T20:54:23.020Z,99.90
2019-04-11T20:56:53.111Z,99.90
2019-04-11T20:59:33.980Z,99.90
2019-04-11T21:01:56.433Z,99.90
2019-04-11T21:04:26.897Z,99.90
2019-04-11T21:06:57.017Z,99.90
2019-04-11T21:09:33.001Z,99.90
2019-04-11T21:12:01.994Z,99.90
2019-04-11T21:14:34.086Z,99.90
2019-04-11T21:17:04.182Z,99.90
2019-04-11T21:19:36.233Z,99.90
2019-04-11T21:22:06.370Z,99.90
2019-04-11T21:24:44.762Z,99.90
2019-04-11T21:27:14.887Z,99.90
2019-04-11T21:32:15.650Z,99.90
2019-04-11T21:34:45.780Z,99.90
2019-04-11T21:37:16.817Z,99.90
2019-04-11T21:42:17.630Z,99.90
2019-04-11T21:44:47.728Z,99.90
2019-04-11T21:47:17.829Z,99.90
2019-04-11T21:52:17.895Z,99.90
2019-04-11T21:54:49.927Z,99.90
2019-04-11T21:59:51.510Z,99.90
2019-04-11T22:02:24.086Z,99.90
2019-04-11T22:04:58.570Z,99.90
2019-04-11T22:07:30.835Z,99.90
2019-04-11T22:12:40.061Z,99.90
2019-04-11T22:15:12.071Z,99.90
2019-04-11T22:20:16.766Z,99.90
2019-04-11T22:22:49.102Z,99.90
2019-04-11T22:25:19.199Z,99.90
2019-04-11T22:27:53.854Z,99.90
2019-04-11T22:30:25.310Z,99.90
2019-04-11T22:43:02.618Z,99.90
2019-04-11T22:45:32.735Z,99.90
2019-04-11T23:00:45.871Z,99.90
2019-04-11T23:03:32.960Z,99.90
2019-04-11T23:08:39.723Z,99.90
2019-04-11T23:11:09.948Z,99.90
2019-04-11T23:13:41.102Z,99.90
2019-04-11T23:16:14.441Z,99.90
2019-04-11T23:18:44.968Z,99.90
2019-04-11T23:26:15.877Z,99.90
2019-04-11T23:28:46.849Z,99.90
2019-04-11T23:31:21.038Z,99.90
2019-04-11T23:33:55.461Z,99.90
2019-04-11T23:44:05.101Z,99.90
2019-04-11T23:49:05.787Z,99.90
2019-04-11T23:54:06.875Z,99.90
2019-04-11T23:56:37.889Z,99.90
2019-04-11T23:59:07.989Z,99.90
